Flight Track Log - Related Links

Times and Time Zones

All times are in EDT time to prevent confusion due to time zone crossing. See the JBU758 flight status page for this flight to view local times or setup timezone preferences in your user account.

Time Position Orientation Groundspeed Altitude Reporting Facility
EDT Latitude Longitude Course Direction KTS MPH feet Rate Location/Type
Sun 05:15:00 PM 12.6981 -69.8152 35° Northeast  Level FlightAware Approximate
Sun 05:16:00 PM 12.8007 -69.7415 35° Northeast  Level FlightAware Approximate
Sun 05:17:00 PM 12.9037 -69.6675 35° Northeast  Level FlightAware Approximate
Sun 05:18:00 PM 13.0067 -69.5935 35° Northeast  Level FlightAware Approximate
Sun 05:19:00 PM 13.1096 -69.5193 35° Northeast  Level FlightAware Approximate
Sun 05:20:00 PM 13.2126 -69.4451 35° Northeast  Level FlightAware Approximate
Sun 05:21:00 PM 13.3155 -69.3708 35° Northeast  Level FlightAware Approximate
Sun 05:22:00 PM 13.4184 -69.2965 35° Northeast  Level FlightAware Approximate
Sun 05:23:00 PM 13.5212 -69.2221 35° Northeast  Level FlightAware Approximate
Sun 05:24:00 PM 13.6241 -69.1477 35° Northeast  Level FlightAware Approximate
Sun 05:25:00 PM 12.6089 -69.9349 36° Northeast  Level FlightAware Approximate
Sun 05:26:00 PM 12.7165 -69.8544 36° Northeast  Level FlightAware Approximate
Sun 05:27:00 PM 12.8240 -69.7739 36° Northeast  Level FlightAware Approximate
Sun 05:28:00 PM 12.9315 -69.6934 36° Northeast  Level FlightAware Approximate
Sun 05:29:00 PM 13.0389 -69.6127 36° Northeast  Level FlightAware Approximate
Sun 05:30:00 PM 13.1464 -69.5320 36° Northeast  Level FlightAware Approximate
Sun 05:31:00 PM 13.2538 -69.4512 36° Northeast  Level FlightAware Approximate
Sun 05:32:00 PM 13.3612 -69.3704 36° Northeast  Level FlightAware Approximate
Sun 05:33:00 PM 13.4685 -69.2894 36° Northeast  Level FlightAware Approximate
Sun 05:34:00 PM 13.5758 -69.2084 36° Northeast  Level FlightAware Approximate
Sun 05:35:00 PM 13.6832 -69.1274 36° Northeast  Level FlightAware Approximate
Sun 05:36:00 PM 13.7904 -69.0462 36° Northeast  Level FlightAware Approximate
Sun 05:37:00 PM 13.8977 -68.9650 36° Northeast  Level FlightAware Approximate
Sun 05:38:00 PM 14.0049 -68.8837 36° Northeast  Level FlightAware Approximate
Sun 05:39:00 PM 14.1121 -68.8023 36° Northeast  Level FlightAware Approximate
Sun 05:40:00 PM 14.2193 -68.7209 36° Northeast  Level FlightAware Approximate
Sun 05:41:00 PM 14.3264 -68.6394 36° Northeast  Level FlightAware Approximate
Sun 05:42:00 PM 14.4320 -68.5590 36° Northeast  Level FlightAware Approximate
Sun 05:43:00 PM 14.5393 -68.4776 36° Northeast  Level FlightAware Approximate
Sun 05:44:00 PM 14.6465 -68.3961 36° Northeast  Level FlightAware Approximate
Sun 05:45:00 PM 14.7537 -68.3145 36° Northeast  Level FlightAware Approximate
Sun 05:46:00 PM 14.8609 -68.2329 36° Northeast  Level FlightAware Approximate
Sun 05:47:00 PM 14.9681 -68.1511 36° Northeast  Level FlightAware Approximate
Sun 05:48:00 PM 15.0752 -68.0693 36° Northeast  Level FlightAware Approximate
Sun 05:49:00 PM 15.1823 -67.9874 36° Northeast  Level FlightAware Approximate
Sun 05:50:00 PM 15.2894 -67.9054 36° Northeast  Level FlightAware Approximate
Sun 05:50:08 PM 16.0333 -67.4000 44° Northeast 480 552 33,000  Level San Juan Center
Sun 05:51:00 PM 15.3964 -67.8233 36° Northeast  Level FlightAware Approximate
Sun 05:51:08 PM 16.1500 -67.3667 15° North 470 541 33,000  Level San Juan Center
Sun 05:52:00 PM 15.5034 -67.7411 36° Northeast  Level FlightAware Approximate
Sun 05:52:09 PM 16.2833 -67.3500 North 470 541 33,000  Level San Juan Center
Sun 05:53:00 PM 15.6104 -67.6589 37° Northeast  Level FlightAware Approximate
Sun 05:53:09 PM 16.4167 -67.3167 13° North 470 541 33,000  Level San Juan Center
Sun 05:54:00 PM 15.7174 -67.5766 37° Northeast  Level FlightAware Approximate
Sun 05:54:10 PM 16.5333 -67.3000 North 460 529 33,000  Level San Juan Center
Sun 05:55:00 PM 15.8235 -67.4932 44° Northeast  Level FlightAware Approximate
Sun 05:55:10 PM 16.6667 -67.2667 13° North 460 529 33,000  Level San Juan Center
Sun 05:56:10 PM 16.8000 -67.2500 North 450 518 33,000  Level San Juan Center
Sun 05:57:11 PM 16.9167 -67.2167 15° North 450 518 33,000  Level San Juan Center
Sun 05:58:11 PM 17.0333 -67.2000 North 450 518 33,000  Level San Juan Center
Sun 05:59:11 PM 17.1667 -67.1667 13° North 460 529 33,000 198 Level San Juan Center
Sun 06:00:12 PM 17.2833 -67.1500 North 460 529 33,400 496 Climbing San Juan Center
Sun 06:01:12 PM 17.4167 -67.1167 13° North 450 518 34,000 298 Climbing San Juan Center
Sun 06:02:13 PM 17.5333 -67.1000 North 450 518 34,000  Level San Juan Center
Sun 06:03:13 PM 17.6667 -67.0667 13° North 450 518 34,000  Level San Juan Center
Sun 06:04:13 PM 17.7833 -67.0500 North 450 518 34,000  Level San Juan Center
Sun 06:10:15 PM 18.5517 -66.9012 11° North 448 516 34,000  Level FlightAware ADS-B (TNCM / SXM)
Sun 06:11:01 PM 18.6486 -66.8812 11° North 448 516 34,000 50 Level FlightAware ADS-B (TNCM / SXM)
Sun 06:12:16 PM 18.7833 -66.8500 11° North 450 518 34,100 44 Climbing San Juan Center
Sun 06:13:17 PM 18.9167 -66.8167 13° North 450 518 34,100  Level San Juan Center
Sun 06:14:17 PM 19.0333 -66.8000 North 440 506 34,100  Level San Juan Center
Sun 06:15:18 PM 19.1500 -66.7667 15° North 440 506 34,100  Level San Juan Center
Sun 06:16:18 PM 19.2500 -66.7500 North 430 495 34,100  Level San Juan Center
Sun 06:17:18 PM 19.3667 -66.7167 15° North 440 506 34,100  Level San Juan Center
Sun 06:18:19 PM 19.5000 -66.7000 North 430 495 34,100  Level San Juan Center
Sun 06:19:19 PM 19.6167 -66.6667 15° North 430 495 34,100 100 Level San Juan Center
Sun 06:20:19 PM 19.7333 -66.6500 North 430 495 34,300 496 Climbing San Juan Center
Sun 06:21:20 PM 19.8500 -66.6167 15° North 430 495 35,100 694 Climbing San Juan Center
Sun 06:22:20 PM 19.9833 -66.6000 North 430 495 35,700 446 Climbing San Juan Center
Sun 06:23:21 PM 20.1000 -66.5667 15° North 420 483 36,000 149 Climbing San Juan Center
Sun 06:24:21 PM 20.2167 -66.5500 North 430 495 36,000  Level San Juan Center
Sun 06:25:21 PM 20.3333 -66.5167 15° North 420 483 36,000  Level San Juan Center
Sun 06:26:22 PM 20.4500 -66.5000 North 430 495 36,000  Level San Juan Center
Sun 06:27:22 PM 20.5667 -66.4667 15° North 420 483 36,000  Level San Juan Center
Sun 06:28:22 PM 20.6833 -66.4500 North 430 495 36,000  Level San Juan Center
Sun 06:29:23 PM 20.8000 -66.4167 15° North 420 483 36,000  Level San Juan Center
Sun 06:30:23 PM 20.9167 -66.4000 North 420 483 36,000  Level San Juan Center
Sun 06:31:24 PM 21.0333 -66.3667 15° North 420 483 36,000  Level San Juan Center
Sun 06:32:24 PM 21.1500 -66.3333 15° North 430 495 36,000  Level San Juan Center
Sun 06:33:24 PM 21.2667 -66.3167 North 420 483 36,000  Level San Juan Center
Sun 06:34:25 PM 21.3833 -66.2833 15° North 410 472 36,000  Level San Juan Center
Sun 06:35:25 PM 21.5000 -66.2667 North 410 472 36,000  Level San Juan Center
Sun 06:36:26 PM 21.6167 -66.2333 15° North 420 483 36,000  Level San Juan Center
Sun 06:37:26 PM 21.7333 -66.2167 North 450 518 36,000  Level San Juan Center
Sun 06:38:26 PM 21.8333 -66.1833 17° North 400 460 36,000  Level San Juan Center
Sun 06:39:27 PM 21.9500 -66.1500 15° North 450 518 36,000  Level San Juan Center
Sun 06:40:27 PM 22.0833 -66.1500 360° North 420 483 36,000  Level San Juan Center
Sun 06:40:31 PM 22.0333 -66.1667 349° North 407 468 36,000  Level New York Oceanic (ODAPS)
Sun 06:41:27 PM 22.2000 -66.1833 349° North 430 495 36,000  Level San Juan Center
Sun 06:48:41 PM 22.9167 -66.3500 349° North 422 486 36,000  Level New York Oceanic (ODAPS)
Sun 07:24:26 PM 27.0833 -67.2500 349° North 451 519 36,000  Level New York Oceanic (ODAPS)
Sun 07:25:00 PM 27.4602 -67.3221 349° North 422 486 36,000  Level FlightAware Transoceanic
Sun 07:26:00 PM 27.5797 -67.3487 349° North 422 486 36,000  Level FlightAware Transoceanic
Sun 07:27:00 PM 27.6991 -67.3754 349° North 422 486 36,000  Level FlightAware Transoceanic
Sun 07:28:00 PM 27.8186 -67.4021 349° North 422 486 36,000  Level FlightAware Transoceanic
Sun 07:29:00 PM 27.9381 -67.4289 349° North 422 486 36,000  Level FlightAware Transoceanic
Sun 07:30:00 PM 27.9472 -67.4402 349° North 451 519 36,000  Level FlightAware Transoceanic
Sun 07:31:00 PM 28.0706 -67.4676 349° North 451 519 36,000  Level FlightAware Transoceanic
Sun 07:32:00 PM 28.1940 -67.4951 349° North 451 519 36,000  Level FlightAware Transoceanic
Sun 07:33:00 PM 28.3174 -67.5226 349° North 451 519 36,000  Level FlightAware Transoceanic
Sun 07:34:00 PM 28.4408 -67.5502 349° North 451 519 36,000  Level FlightAware Transoceanic
Sun 07:35:00 PM 28.5641 -67.5779 349° North 451 519 36,000  Level FlightAware Transoceanic
Sun 07:36:00 PM 28.6875 -67.6057 349° North 451 519 36,000  Level FlightAware Transoceanic
Sun 07:37:00 PM 28.8109 -67.6335 349° North 451 519 36,000  Level FlightAware Transoceanic
Sun 07:38:00 PM 28.9342 -67.6613 349° North 451 519 36,000  Level FlightAware Transoceanic
Sun 07:39:00 PM 29.0576 -67.6893 349° North 451 519 36,000  Level FlightAware Transoceanic
Sun 07:40:00 PM 29.1809 -67.7173 349° North 451 519 36,000  Level FlightAware Transoceanic
Sun 07:41:00 PM 29.3042 -67.7453 349° North 451 519 36,000  Level FlightAware Transoceanic
Sun 07:42:00 PM 29.4276 -67.7735 349° North 451 519 36,000  Level FlightAware Transoceanic
Sun 07:43:00 PM 29.5509 -67.8017 349° North 451 519 36,000  Level FlightAware Transoceanic
Sun 07:44:00 PM 29.6742 -67.8299 349° North 451 519 36,000  Level FlightAware Transoceanic
Sun 07:45:00 PM 29.7975 -67.8583 349° North 451 519 36,000  Level FlightAware Transoceanic
Sun 07:46:00 PM 29.9208 -67.8867 349° North 451 519 36,000  Level FlightAware Transoceanic
Sun 07:47:00 PM 30.0441 -67.9152 349° North 451 519 36,000  Level FlightAware Transoceanic
Sun 07:48:00 PM 30.1674 -67.9437 349° North 451 519 36,000  Level FlightAware Transoceanic
Sun 07:49:00 PM 30.2907 -67.9724 349° North 451 519 36,000  Level FlightAware Transoceanic
Sun 07:50:00 PM 30.4140 -68.0011 349° North 451 519 36,000  Level FlightAware Transoceanic
Sun 07:51:00 PM 30.5373 -68.0298 349° North 451 519 36,000  Level FlightAware Transoceanic
Sun 07:52:00 PM 30.6605 -68.0587 349° North 451 519 36,000  Level FlightAware Transoceanic
Sun 07:53:00 PM 30.7838 -68.0876 349° North 451 519 36,000  Level FlightAware Transoceanic
Sun 07:54:00 PM 30.9070 -68.1166 349° North 451 519 36,000  Level FlightAware Transoceanic
Sun 07:55:00 PM 31.0303 -68.1457 349° North 451 519 36,000  Level FlightAware Transoceanic
Sun 07:56:00 PM 31.1535 -68.1748 349° North 451 519 36,000  Level FlightAware Transoceanic
Sun 07:57:00 PM 31.2768 -68.2040 349° North 451 519 36,000  Level FlightAware Transoceanic
Sun 07:58:00 PM 31.4000 -68.2333 348° North 451 519 36,000  Level FlightAware Transoceanic
Sun 07:59:00 PM 31.5362 -68.2665 348° North 451 519 36,000  Level FlightAware Transoceanic
Sun 08:00:00 PM 31.6724 -68.2998 348° North 451 519 36,000  Level FlightAware Transoceanic
Sun 08:01:00 PM 31.8086 -68.3331 348° North 451 519 36,000  Level FlightAware Transoceanic
Sun 08:02:00 PM 31.9447 -68.3666 348° North 451 519 36,000  Level FlightAware Transoceanic
Sun 08:03:00 PM 32.0809 -68.4001 348° North 451 519 36,000  Level FlightAware Transoceanic
Sun 08:04:00 PM 32.2170 -68.4338 348° North 451 519 36,000  Level FlightAware Transoceanic
Sun 08:05:00 PM 32.3532 -68.4675 348° North 451 519 36,000  Level FlightAware Transoceanic
Sun 08:06:00 PM 32.4893 -68.5014 348° North 451 519 36,000  Level FlightAware Transoceanic
Sun 08:07:00 PM 32.6254 -68.5354 348° North 451 519 36,000  Level FlightAware Transoceanic
Sun 08:08:00 PM 32.7616 -68.5694 348° North 451 519 36,000  Level FlightAware Transoceanic
Sun 08:09:00 PM 32.8977 -68.6036 348° North 451 519 36,000  Level FlightAware Transoceanic
Sun 08:10:00 PM 33.0337 -68.6379 348° North 451 519 36,000  Level FlightAware Transoceanic
Sun 08:11:00 PM 33.1698 -68.6722 348° North 451 519 36,000  Level FlightAware Transoceanic
Sun 08:12:00 PM 33.3059 -68.7067 348° North 451 519 36,000  Level FlightAware Transoceanic
Sun 08:13:00 PM 33.4420 -68.7413 348° North 451 519 36,000  Level FlightAware Transoceanic
Sun 08:14:00 PM 33.5780 -68.7760 348° North 451 519 36,000  Level FlightAware Transoceanic
Sun 08:15:00 PM 33.7141 -68.8108 348° North 451 519 36,000  Level FlightAware Transoceanic
Sun 08:16:00 PM 33.8501 -68.8458 348° North 451 519 36,000  Level FlightAware Transoceanic
Sun 08:17:00 PM 33.9862 -68.8808 348° North 451 519 36,000  Level FlightAware Transoceanic
Sun 08:18:00 PM 34.1222 -68.9159 348° North 451 519 36,000  Level FlightAware Transoceanic
Sun 08:19:00 PM 34.2582 -68.9512 348° North 451 519 36,000  Level FlightAware Transoceanic
Sun 08:20:00 PM 34.3942 -68.9866 348° North 451 519 36,000  Level FlightAware Transoceanic
Sun 08:21:00 PM 34.5302 -69.0221 348° North 451 519 36,000  Level FlightAware Transoceanic
Sun 08:22:00 PM 34.6661 -69.0577 348° North 451 519 36,000  Level FlightAware Transoceanic
Sun 08:23:00 PM 34.8021 -69.0934 348° North 451 519 36,000  Level FlightAware Transoceanic
Sun 08:24:00 PM 34.9381 -69.1292 348° North 451 519 36,000  Level FlightAware Transoceanic
Sun 08:25:00 PM 35.0740 -69.1652 348° North 451 519 36,000  Level FlightAware Transoceanic
Sun 08:26:00 PM 35.2100 -69.2013 348° North 451 519 36,000  Level FlightAware Transoceanic
Sun 08:27:00 PM 35.3459 -69.2375 348° North 451 519 36,000  Level FlightAware Transoceanic
Sun 08:28:00 PM 35.4818 -69.2738 348° North 451 519 36,000  Level FlightAware Transoceanic
Sun 08:29:00 PM 35.6177 -69.3102 348° North 451 519 36,000  Level FlightAware Transoceanic
Sun 08:30:00 PM 35.7536 -69.3468 348° North 451 519 36,000  Level FlightAware Transoceanic
Sun 08:31:00 PM 35.8895 -69.3835 348° North 451 519 36,000  Level FlightAware Transoceanic
Sun 08:32:00 PM 36.0253 -69.4203 348° North 451 519 36,000  Level FlightAware Transoceanic
Sun 08:33:00 PM 36.1612 -69.4573 348° North 451 519 36,000  Level FlightAware Transoceanic
Sun 08:34:00 PM 36.2971 -69.4944 348° North 451 519 36,000  Level FlightAware Transoceanic
Sun 08:34:12 PM 36.1667 -69.4500 347° North 532 612 36,000  Level New York Oceanic (ODAPS)
Sun 08:44:15 PM 37.7156 -69.8508 298° West 448 516 36,000  Level New York Center
Sun 08:45:00 PM 37.9003 -69.9405 347° North 532 612 36,000  Level FlightAware Transoceanic
Sun 08:45:15 PM 37.8536 -69.8992 345° North 483 556 36,000  Level New York Center
Sun 08:46:00 PM 38.0446 -69.9824 347° North 532 612 36,000  Level FlightAware Transoceanic
Sun 08:46:15 PM 37.9894 -69.9397 347° North 497 572 36,000  Level New York Center
Sun 08:47:00 PM 38.1890 -70.0244 347° North 532 612 36,000 100 Level FlightAware Transoceanic
Sun 08:47:15 PM 38.0944 -70.0442 322° Northwest 487 560 36,100  Climbing New York Center
Sun 08:48:00 PM 38.3333 -70.0667 298° West 532 612 36,000 -100 Descending FlightAware Transoceanic
Sun 08:48:15 PM 38.1661 -70.1731 305° West 450 518 36,000  Level New York Center
Sun 08:49:15 PM 38.2375 -70.2994 306° West 444 511 36,000  Level New York Center
Sun 08:50:15 PM 38.3047 -70.4314 303° West 444 511 36,000  Level New York Center
Sun 08:51:15 PM 38.3778 -70.5633 305° West 449 517 36,000  Level New York Center
Sun 08:52:15 PM 38.4447 -70.6983 302° West 454 522 36,000  Level New York Center
Sun 08:53:15 PM 38.5156 -70.8364 303° West 459 528 36,000  Level New York Center
Sun 08:54:15 PM 38.5861 -70.9772 303° West 464 534 36,000  Level New York Center
Sun 08:55:15 PM 38.6589 -71.1106 305° West 464 534 36,000  Level New York Center
Sun 08:56:15 PM 38.7269 -71.2653 299° West 470 541 36,000  Level New York Center
Sun 08:57:15 PM 38.8014 -71.3939 307° West 470 541 36,000 -200 Level New York Center
Sun 08:58:15 PM 38.8736 -71.5278 305° West 465 535 35,600 -750 Descending New York Center
Sun 08:59:15 PM 38.9456 -71.6728 303° West 465 535 34,500 -1,900 Descending New York Center
Sun 09:00:15 PM 39.0194 -71.8181 303° West 472 543 31,800 -2,400 Descending New York Center
Sun 09:01:15 PM 39.0908 -71.9608 303° West 478 550 29,700 -1,950 Descending New York Center
Sun 09:02:15 PM 39.1581 -72.0986 302° West 473 544 27,900 -1,800 Descending New York Center
Sun 09:03:15 PM 39.2253 -72.2339 303° West 463 533 26,100 -1,750 Descending New York Center
Sun 09:04:15 PM 39.2903 -72.3614 303° West 450 518 24,400 -1,800 Descending New York Center
Sun 09:05:15 PM 39.3550 -72.4972 302° West 445 512 22,500 -1,800 Descending New York Center
Sun 09:06:15 PM 39.4178 -72.6222 303° West 431 496 20,800 -1,650 Descending New York Center
Sun 09:07:15 PM 39.4783 -72.7450 303° West 416 479 19,200 -1,750 Descending New York Center
Sun 09:08:15 PM 39.5347 -72.8622 302° West 403 464 17,300 -1,800 Descending New York Center
Sun 09:09:15 PM 39.5931 -72.9800 303° West 398 458 15,600 -1,600 Descending New York Center
Sun 09:10:15 PM 39.6469 -73.0894 303° West 384 442 14,100 -1,150 Descending New York Center
Sun 09:11:15 PM 39.6969 -73.1989 301° West 370 426 13,300 -900 Descending New York Center
Sun 09:12:15 PM 39.7508 -73.3061 303° West 360 414 12,300 -950 Descending New York Center
Sun 09:13:15 PM 39.8006 -73.4133 301° West 360 414 11,400 -900 Descending New York Center
Sun 09:14:15 PM 39.8464 -73.5125 301° West 345 397 10,500 -850 Descending New York Center
Sun 09:15:15 PM 39.8900 -73.6008 303° West 318 366 9,700 -800 Descending New York Center
Sun 09:16:15 PM 39.9336 -73.6919 302° West 303 349 8,900 -400 Descending New York Center
Sun 09:17:15 PM 39.9772 -73.7831 302° West 296 341 8,900 50 Level New York Center
Sun 09:18:15 PM 40.0492 -73.8269 335° Northwest 258 297 9,000 -100 Climbing New York Center
Sun 09:19:15 PM 40.1042 -73.7886 28° Northeast 215 247 8,700 -700 Descending New York Center
Sun 09:20:15 PM 40.1436 -73.7169 54° Northeast 210 242 7,600 -1,200 Descending New York Center
Sun 09:21:15 PM 40.1881 -73.6836 30° Northeast 208 239 6,300 -1,450 Descending New York Center
Sun 09:22:15 PM 40.2342 -73.7564 310° West 157 181 4,700 -1,500 Descending New York Center
Sun 09:23:15 PM 40.2678 -73.8283 301° West 226 260 3,300 -1,100 Descending New York Center
Sun 09:24:15 PM 40.2953 -73.8950 298° West 240 276 2,500 -650 Descending New York Center
Sun 09:25:15 PM 40.3269 -73.9589 303° West 208 239 2,000 -250 Descending New York Center
Sun 09:26:15 PM 40.3664 -73.9664 352° North 159 183 2,000  Level New York Center
Sun 09:27:15 PM 40.4108 -73.9411 23° Northeast 149 171 2,000  Level New York Center
Sun 09:28:15 PM 40.4469 -73.9128 31° Northeast 157 181 2,000  Level New York Center
Sun 09:29:15 PM 40.4853 -73.8844 29° Northeast 157 181 2,000  Level New York Center
Sun 09:30:15 PM 40.5128 -73.8611 33° Northeast 146 168 2,000 -92 Level New York Center
Sun 09:31:26 PM 40.5500 -73.8333 30° Northeast 129 148 1,800 -412 Descending New York TRACON
Sun 09:32:26 PM 40.5833 -73.8000 37° Northeast 121 139 1,100 -700 Descending New York TRACON
Sun 09:33:26 PM 40.6167 -73.7833 21° North 125 144 400 -700 Descending New York TRACON
Sun 09:35:00 PM 40.6333 -73.7667 North  Level FlightAware Approximate
Sun 09:42:00 PM 40.6398 -73.7789 305° West  Level Estimated

Login

Don't have an account? Register now (free) for customized features, flight alerts, and more!